createdAt,value
2017-12-13T00:01:16.649Z,6.93
2017-12-13T00:03:44.076Z,6.30
2017-12-13T00:06:11.535Z,6.10
2017-12-13T00:08:38.971Z,6.13
2017-12-13T00:11:06.415Z,6.07
2017-12-13T00:13:33.908Z,6.23
2017-12-13T00:16:01.347Z,6.00
2017-12-13T00:18:28.787Z,7.67
2017-12-13T00:20:56.260Z,7.63
2017-12-13T00:23:34.569Z,5.90
2017-12-13T00:26:02.007Z,7.60
2017-12-13T00:28:29.490Z,6.97
2017-12-13T00:30:56.938Z,6.43
2017-12-13T00:33:24.400Z,7.83
2017-12-13T00:35:51.857Z,8.53
2017-12-13T00:38:19.327Z,7.60
2017-12-13T00:40:46.783Z,7.80
2017-12-13T00:43:14.846Z,6.07
2017-12-13T00:45:42.300Z,6.23
2017-12-13T00:48:09.762Z,6.27
2017-12-13T00:50:37.209Z,5.97
2017-12-13T00:53:04.671Z,7.70
2017-12-13T00:55:32.133Z,6.37
2017-12-13T00:57:59.654Z,5.67
2017-12-13T01:00:27.081Z,6.40
2017-12-13T01:02:54.519Z,6.23
2017-12-13T01:05:22.008Z,6.37
2017-12-13T01:07:49.464Z,7.73
2017-12-13T01:10:17.009Z,9.23
2017-12-13T01:12:44.431Z,5.93
2017-12-13T01:15:11.883Z,6.07
2017-12-13T01:17:39.335Z,6.57
2017-12-13T01:20:06.829Z,6.27
2017-12-13T01:22:34.262Z,7.23
2017-12-13T01:25:01.792Z,6.53
2017-12-13T01:27:29.229Z,6.50
2017-12-13T01:29:56.678Z,6.03
2017-12-13T01:32:24.151Z,6.30
2017-12-13T01:34:51.684Z,5.80
2017-12-13T01:37:19.175Z,6.90
2017-12-13T01:39:46.567Z,7.23
2017-12-13T01:42:13.985Z,6.40
2017-12-13T01:44:41.421Z,6.03
2017-12-13T01:47:08.885Z,6.37
2017-12-13T01:49:36.340Z,7.00
2017-12-13T01:52:03.803Z,7.37
2017-12-13T01:54:31.310Z,7.23
2017-12-13T01:56:58.813Z,7.50
2017-12-13T01:59:26.244Z,6.00
2017-12-13T02:01:53.673Z,7.03
2017-12-13T02:04:21.126Z,8.43
2017-12-13T02:06:48.579Z,8.53
2017-12-13T02:09:16.056Z,6.87
2017-12-13T02:11:43.583Z,6.97
2017-12-13T02:14:11.068Z,6.70
2017-12-13T02:16:39.062Z,8.53
2017-12-13T02:19:07.332Z,6.67
2017-12-13T02:21:34.767Z,6.50
2017-12-13T02:24:02.225Z,6.50
2017-12-13T02:26:29.663Z,6.20
2017-12-13T02:28:57.119Z,6.87
2017-12-13T02:31:24.552Z,7.67
2017-12-13T02:33:51.995Z,7.10
2017-12-13T02:36:19.452Z,8.37
2017-12-13T02:38:46.892Z,7.23
2017-12-13T02:41:14.352Z,7.00
2017-12-13T02:43:41.818Z,6.87
2017-12-13T02:46:09.259Z,7.33
2017-12-13T02:48:36.715Z,7.87
2017-12-13T02:51:04.170Z,6.93
2017-12-13T02:53:32.519Z,7.00
2017-12-13T02:56:00.055Z,7.50
2017-12-13T02:58:27.533Z,7.57
2017-12-13T03:00:54.983Z,7.47
2017-12-13T03:03:22.457Z,9.17
2017-12-13T03:05:49.914Z,12.10
2017-12-13T03:08:17.388Z,7.27
2017-12-13T03:10:44.847Z,7.27
2017-12-13T03:13:12.320Z,9.57
2017-12-13T03:15:39.834Z,7.37
2017-12-13T03:18:08.052Z,7.73
2017-12-13T03:20:35.514Z,8.57
2017-12-13T03:23:03.027Z,7.27
2017-12-13T03:25:40.170Z,9.03
2017-12-13T03:28:07.608Z,6.53
2017-12-13T03:30:35.080Z,7.03
2017-12-13T03:33:02.522Z,7.13
2017-12-13T03:35:30.941Z,6.57
2017-12-13T03:37:58.399Z,6.97
2017-12-13T03:40:25.847Z,10.27
2017-12-13T03:42:53.370Z,7.90
2017-12-13T03:45:20.826Z,6.33
2017-12-13T03:47:48.253Z,6.33
2017-12-13T03:50:15.768Z,7.13
2017-12-13T03:52:44.019Z,5.57
2017-12-13T03:55:11.546Z,6.70
2017-12-13T03:57:38.977Z,5.83
2017-12-13T04:00:06.443Z,6.63
2017-12-13T04:02:33.932Z,6.40
2017-12-13T04:05:01.392Z,6.63
2017-12-13T04:07:28.864Z,5.47
2017-12-13T04:09:56.334Z,5.63
2017-12-13T04:12:23.819Z,6.17
2017-12-13T04:14:51.283Z,5.97
2017-12-13T04:17:18.731Z,8.80
2017-12-13T04:19:53.357Z,6.10
2017-12-13T04:22:20.887Z,5.77
2017-12-13T04:24:48.344Z,7.33
2017-12-13T04:27:15.819Z,7.10
2017-12-13T04:29:43.292Z,6.63
2017-12-13T04:32:10.752Z,5.60
2017-12-13T04:34:38.250Z,7.77
2017-12-13T04:37:05.707Z,5.80
2017-12-13T04:39:33.135Z,5.60
2017-12-13T04:42:00.632Z,6.33
2017-12-13T04:44:28.074Z,6.13
2017-12-13T04:46:55.561Z,7.47
2017-12-13T04:49:23.052Z,6.37
2017-12-13T04:51:50.564Z,6.70
2017-12-13T04:54:18.007Z,7.60
2017-12-13T04:56:45.529Z,5.87
2017-12-13T04:59:13.016Z,9.20
2017-12-13T05:01:40.540Z,6.20
2017-12-13T05:04:07.998Z,9.80
2017-12-13T05:06:35.520Z,8.13
2017-12-13T05:09:02.968Z,7.10
2017-12-13T05:11:30.418Z,6.90
2017-12-13T05:13:57.872Z,5.63
2017-12-13T05:16:25.436Z,9.93
2017-12-13T05:18:52.901Z,6.27
2017-12-13T05:21:20.344Z,8.97
2017-12-13T05:23:47.890Z,7.97
2017-12-13T05:26:15.352Z,6.50
2017-12-13T05:28:42.848Z,5.90
2017-12-13T05:31:10.302Z,7.30
2017-12-13T05:33:37.746Z,6.87
2017-12-13T05:36:05.253Z,8.07
2017-12-13T05:38:32.689Z,7.43
2017-12-13T05:41:00.161Z,5.60
2017-12-13T05:43:27.600Z,6.93
2017-12-13T05:45:55.042Z,6.03
2017-12-13T05:48:22.491Z,5.67
2017-12-13T05:50:50.059Z,6.50
2017-12-13T05:53:17.532Z,5.67
2017-12-13T05:55:45.134Z,6.33
2017-12-13T05:58:12.596Z,6.27
2017-12-13T06:00:40.148Z,7.00
2017-12-13T06:03:07.609Z,6.30
2017-12-13T06:05:35.097Z,10.87
2017-12-13T06:08:02.520Z,6.83
2017-12-13T06:10:29.972Z,5.97
2017-12-13T06:12:57.445Z,6.40
2017-12-13T06:18:17.561Z,6.60
2017-12-13T06:20:45.021Z,6.03
2017-12-13T06:23:12.459Z,6.60
2017-12-13T06:25:40.088Z,6.27
2017-12-13T06:28:07.518Z,6.50
2017-12-13T06:30:35.063Z,7.53
2017-12-13T06:33:03.388Z,7.90
2017-12-13T06:35:30.964Z,7.03
2017-12-13T06:37:58.415Z,7.97
2017-12-13T06:40:26.161Z,6.83
2017-12-13T06:42:53.648Z,6.50
2017-12-13T06:45:21.138Z,6.97
2017-12-13T06:47:48.600Z,9.07
2017-12-13T06:50:16.061Z,8.07
2017-12-13T06:52:43.611Z,5.90
2017-12-13T06:55:11.085Z,8.77
2017-12-13T06:57:38.586Z,5.87
2017-12-13T07:00:06.140Z,6.67
2017-12-13T07:02:33.858Z,5.80
2017-12-13T07:05:01.300Z,10.20
2017-12-13T07:07:28.965Z,9.47
2017-12-13T07:09:56.486Z,7.47
2017-12-13T07:12:24.049Z,7.60
2017-12-13T07:14:51.510Z,6.53
2017-12-13T07:17:19.004Z,6.57
2017-12-13T07:19:46.484Z,7.90
2017-12-13T07:22:13.934Z,7.17
2017-12-13T07:24:41.430Z,6.30
2017-12-13T07:27:08.965Z,6.27
2017-12-13T07:29:36.448Z,6.00
2017-12-13T07:32:03.948Z,10.00
2017-12-13T07:34:31.415Z,6.07
2017-12-13T07:36:58.915Z,8.87
2017-12-13T07:39:26.367Z,7.17
2017-12-13T07:41:53.815Z,7.47
2017-12-13T07:44:21.314Z,6.50
2017-12-13T07:46:48.783Z,6.53
2017-12-13T07:49:16.242Z,6.37
2017-12-13T07:51:43.853Z,6.00
2017-12-13T07:54:16.377Z,5.97
2017-12-13T07:56:44.207Z,6.37
2017-12-13T07:59:11.711Z,5.23
2017-12-13T08:01:39.153Z,6.17
2017-12-13T08:04:06.659Z,9.20
2017-12-13T08:06:34.116Z,6.43
2017-12-13T08:09:02.518Z,6.37
2017-12-13T08:11:30.338Z,5.47
2017-12-13T08:13:57.804Z,7.73
2017-12-13T08:16:25.397Z,5.40
2017-12-13T08:18:52.904Z,5.57
2017-12-13T08:21:20.361Z,5.40
2017-12-13T08:23:47.870Z,6.60
2017-12-13T08:26:15.332Z,5.87
2017-12-13T08:28:42.826Z,5.47
2017-12-13T08:31:10.613Z,5.93
2017-12-13T08:33:38.107Z,5.67
2017-12-13T08:36:05.616Z,5.53
2017-12-13T08:38:33.062Z,5.33
2017-12-13T08:41:00.508Z,7.57
2017-12-13T08:43:27.957Z,5.30
2017-12-13T08:45:55.438Z,5.73
2017-12-13T08:48:22.945Z,6.57
2017-12-13T08:50:50.398Z,5.70
2017-12-13T08:53:17.978Z,5.50
2017-12-13T08:55:45.449Z,5.20
2017-12-13T08:58:12.950Z,5.00
2017-12-13T09:00:40.526Z,4.37
2017-12-13T09:03:08.018Z,5.07
2017-12-13T09:05:35.487Z,5.77
2017-12-13T09:08:02.969Z,4.97
2017-12-13T09:10:30.438Z,5.13
2017-12-13T09:12:58.059Z,4.73
2017-12-13T09:15:25.545Z,5.20
2017-12-13T09:17:53.067Z,4.40
2017-12-13T09:20:20.552Z,4.73
2017-12-13T09:22:48.022Z,5.00
2017-12-13T09:25:15.455Z,4.27
2017-12-13T09:27:43.047Z,4.10
2017-12-13T09:30:10.495Z,6.50
2017-12-13T09:32:38.015Z,5.97
2017-12-13T09:35:05.532Z,5.80
2017-12-13T09:37:32.958Z,4.70
2017-12-13T09:40:00.431Z,4.77
2017-12-13T09:42:27.926Z,6.17
2017-12-13T09:44:55.399Z,4.53
2017-12-13T09:47:22.840Z,5.77
2017-12-13T09:49:50.330Z,7.53
2017-12-13T09:52:17.771Z,5.13
2017-12-13T09:54:45.305Z,7.93
2017-12-13T09:57:12.748Z,6.00
2017-12-13T09:59:40.230Z,4.83
2017-12-13T10:02:08.700Z,6.07
2017-12-13T10:04:36.186Z,4.70
2017-12-13T10:07:03.687Z,6.03
2017-12-13T10:09:31.232Z,4.50
2017-12-13T10:11:58.776Z,5.53
2017-12-13T10:14:26.499Z,4.73
2017-12-13T10:16:53.925Z,4.90
2017-12-13T10:19:21.642Z,5.47
2017-12-13T10:21:49.148Z,6.27
2017-12-13T10:24:16.636Z,21.53
2017-12-13T10:26:44.450Z,7.47
2017-12-13T10:29:11.928Z,4.73
2017-12-13T10:31:39.458Z,4.80
2017-12-13T10:34:07.038Z,4.60
2017-12-13T10:36:34.495Z,7.50
2017-12-13T10:39:02.020Z,6.80
2017-12-13T10:41:29.535Z,4.93
2017-12-13T10:43:57.030Z,4.73
2017-12-13T10:46:24.528Z,5.07
2017-12-13T10:48:52.023Z,6.07
2017-12-13T10:51:19.485Z,4.77
2017-12-13T10:53:46.969Z,5.20
2017-12-13T10:56:14.456Z,6.80
2017-12-13T10:58:42.023Z,6.50
2017-12-13T11:01:09.481Z,5.00
2017-12-13T11:03:36.947Z,6.27
2017-12-13T11:06:04.494Z,4.67
2017-12-13T11:08:31.938Z,5.60
2017-12-13T11:10:59.406Z,6.63
2017-12-13T11:13:26.905Z,4.23
2017-12-13T11:15:54.378Z,5.80
2017-12-13T11:18:21.966Z,8.57
2017-12-13T11:20:49.469Z,6.13
2017-12-13T11:23:16.988Z,4.13
2017-12-13T11:25:44.856Z,7.63
2017-12-13T11:28:12.370Z,7.87
2017-12-13T11:30:39.865Z,3.80
2017-12-13T11:33:07.346Z,4.23
2017-12-13T11:35:34.858Z,5.43
2017-12-13T11:38:02.347Z,4.00
2017-12-13T11:40:29.799Z,4.00
2017-12-13T11:42:57.353Z,3.77
2017-12-13T11:45:24.823Z,5.83
2017-12-13T11:47:52.350Z,4.37
2017-12-13T11:50:19.782Z,4.97
2017-12-13T11:52:47.768Z,4.60
2017-12-13T11:55:24.874Z,6.57
2017-12-13T11:57:52.399Z,5.23
2017-12-13T12:00:19.853Z,4.63
2017-12-13T12:02:47.277Z,7.63
2017-12-13T12:05:15.018Z,4.17
2017-12-13T12:07:42.536Z,5.17
2017-12-13T12:10:10.043Z,3.40
2017-12-13T12:12:37.604Z,3.27
2017-12-13T12:15:05.137Z,4.60
2017-12-13T12:17:33.599Z,5.43
2017-12-13T12:20:01.097Z,3.97
2017-12-13T12:22:29.075Z,6.87
2017-12-13T12:24:56.578Z,4.40
2017-12-13T12:27:24.349Z,4.97
2017-12-13T12:29:51.912Z,3.60
2017-12-13T12:32:19.406Z,4.07
2017-12-13T12:34:56.601Z,3.50
2017-12-13T12:37:24.195Z,3.77
2017-12-13T12:39:51.996Z,5.20
2017-12-13T12:42:19.481Z,7.23
2017-12-13T12:44:47.671Z,4.70
2017-12-13T12:47:15.151Z,4.80
2017-12-13T12:49:42.814Z,4.03
2017-12-13T12:52:11.144Z,3.67
2017-12-13T12:54:38.653Z,5.27
2017-12-13T12:57:06.087Z,4.17
2017-12-13T12:59:33.515Z,4.67
2017-12-13T13:02:00.977Z,4.17
2017-12-13T13:04:28.532Z,5.40
2017-12-13T13:06:55.949Z,4.67
2017-12-13T13:09:23.437Z,3.67
2017-12-13T13:11:50.983Z,7.87
2017-12-13T13:14:18.758Z,3.33
2017-12-13T13:16:46.185Z,5.13
2017-12-13T13:19:13.631Z,3.23
2017-12-13T13:21:41.111Z,3.67
2017-12-13T13:24:08.552Z,3.93
2017-12-13T13:26:36.020Z,4.50
2017-12-13T13:29:03.496Z,2.80
2017-12-13T13:31:31.281Z,5.67
2017-12-13T13:33:58.737Z,4.20
2017-12-13T13:36:26.189Z,2.80
2017-12-13T13:38:53.635Z,3.83
2017-12-13T13:41:22.431Z,5.73
2017-12-13T13:43:49.964Z,3.20
2017-12-13T13:46:17.416Z,4.50
2017-12-13T13:48:45.014Z,3.10
2017-12-13T13:51:12.466Z,3.80
2017-12-13T13:53:39.912Z,5.20
2017-12-13T13:56:07.411Z,4.60
2017-12-13T13:58:34.874Z,4.20
2017-12-13T14:01:02.393Z,3.00
2017-12-13T14:03:29.827Z,2.70
2017-12-13T14:05:57.278Z,3.00
2017-12-13T14:08:24.790Z,3.33
2017-12-13T14:10:52.228Z,3.03
2017-12-13T14:13:19.705Z,3.27
2017-12-13T14:15:47.173Z,3.03
2017-12-13T14:18:15.235Z,3.70
2017-12-13T14:20:42.727Z,2.90
2017-12-13T14:23:11.082Z,2.93
2017-12-13T14:25:38.524Z,3.23
2017-12-13T14:28:05.994Z,3.90
2017-12-13T14:30:33.514Z,3.53
2017-12-13T14:33:00.985Z,6.13
2017-12-13T14:35:28.477Z,5.07
2017-12-13T14:37:55.916Z,3.17
2017-12-13T14:40:23.413Z,3.13
2017-12-13T14:42:51.640Z,3.40
2017-12-13T14:45:19.164Z,3.47
2017-12-13T14:47:46.692Z,4.30
2017-12-13T14:52:50.676Z,2.80
2017-12-13T14:55:18.255Z,3.13
2017-12-13T14:57:45.740Z,3.90
2017-12-13T15:00:13.304Z,3.37
2017-12-13T15:02:40.750Z,5.87
2017-12-13T15:05:08.328Z,3.27
2017-12-13T15:07:35.772Z,5.43
2017-12-13T15:10:03.239Z,3.00
2017-12-13T15:12:30.715Z,3.33
2017-12-13T15:14:58.280Z,2.97
2017-12-13T15:17:25.755Z,3.10
2017-12-13T15:19:53.229Z,4.97
2017-12-13T15:22:20.704Z,7.43
2017-12-13T15:24:48.220Z,3.83
2017-12-13T15:27:15.709Z,4.07
2017-12-13T15:29:44.034Z,4.90
2017-12-13T15:32:11.576Z,4.23
2017-12-13T15:34:39.017Z,4.20
2017-12-13T15:37:06.479Z,5.67
2017-12-13T15:39:33.940Z,4.23
2017-12-13T15:42:01.408Z,4.20
2017-12-13T15:44:28.890Z,4.53
2017-12-13T15:46:56.338Z,5.17
2017-12-13T15:49:24.119Z,6.33
2017-12-13T15:51:51.619Z,5.17
2017-12-13T15:54:19.134Z,4.63
2017-12-13T15:56:46.589Z,7.37
2017-12-13T15:59:14.072Z,4.73
2017-12-13T16:01:41.553Z,6.00
2017-12-13T16:04:09.046Z,4.43
2017-12-13T16:06:36.509Z,4.03
2017-12-13T16:09:04.005Z,4.47
2017-12-13T16:11:31.571Z,5.80
2017-12-13T16:13:59.004Z,4.80
2017-12-13T16:16:26.468Z,6.77
2017-12-13T16:18:56.654Z,5.40
2017-12-13T16:21:24.940Z,4.73
2017-12-13T16:23:52.478Z,4.47
2017-12-13T16:26:29.580Z,4.53
2017-12-13T16:28:57.054Z,5.73
2017-12-13T16:31:24.514Z,5.27
2017-12-13T16:33:52.072Z,5.47
2017-12-13T16:36:19.531Z,6.27
2017-12-13T16:38:46.952Z,5.07
2017-12-13T16:41:14.446Z,5.00
2017-12-13T16:43:41.916Z,4.90
2017-12-13T16:46:09.516Z,4.80
2017-12-13T16:48:36.983Z,6.30
2017-12-13T16:51:04.474Z,6.67
2017-12-13T16:53:31.975Z,5.37
2017-12-13T16:55:59.521Z,5.70
2017-12-13T16:58:26.945Z,4.53
2017-12-13T17:00:54.458Z,4.67
2017-12-13T17:03:21.893Z,4.77
2017-12-13T17:05:49.327Z,4.30
2017-12-13T17:08:16.857Z,4.23
2017-12-13T17:10:44.324Z,4.53
2017-12-13T17:13:11.860Z,10.60
2017-12-13T17:15:39.333Z,5.13
2017-12-13T17:18:06.855Z,5.37
2017-12-13T17:20:34.394Z,4.67
2017-12-13T17:23:01.836Z,4.23
2017-12-13T17:25:29.389Z,5.43
2017-12-13T17:27:56.917Z,4.70
2017-12-13T17:30:24.358Z,4.87
2017-12-13T17:32:51.810Z,7.60
2017-12-13T17:35:19.245Z,3.93
2017-12-13T17:37:46.683Z,5.90
2017-12-13T17:40:14.143Z,4.50
2017-12-13T17:42:41.610Z,4.77
2017-12-13T17:45:09.150Z,6.23
2017-12-13T17:47:36.626Z,4.77
2017-12-13T17:50:04.074Z,4.80
2017-12-13T17:52:31.573Z,5.23
2017-12-13T17:54:59.092Z,4.67
2017-12-13T17:57:26.831Z,4.80
2017-12-13T17:59:54.343Z,4.57
2017-12-13T18:02:21.816Z,4.43
2017-12-13T18:04:49.310Z,4.40
2017-12-13T18:07:16.762Z,7.10
2017-12-13T18:09:44.242Z,6.00
2017-12-13T18:12:11.715Z,5.73
2017-12-13T18:14:40.329Z,5.07
2017-12-13T18:17:07.781Z,4.30
2017-12-13T18:19:35.247Z,4.20
2017-12-13T18:22:02.728Z,4.40
2017-12-13T18:24:30.165Z,3.97
2017-12-13T18:26:57.639Z,3.43
2017-12-13T18:29:25.061Z,3.93
2017-12-13T18:31:52.794Z,3.47
2017-12-13T18:34:20.293Z,3.10
2017-12-13T18:36:47.769Z,5.20
2017-12-13T18:39:15.304Z,3.77
2017-12-13T18:41:42.809Z,3.60
2017-12-13T18:44:10.329Z,6.17
2017-12-13T18:46:37.818Z,3.63
2017-12-13T18:49:05.310Z,3.73
2017-12-13T18:51:32.784Z,3.20
2017-12-13T18:54:00.338Z,3.67
2017-12-13T18:56:27.874Z,4.20
2017-12-13T18:58:55.339Z,6.57
2017-12-13T19:01:22.861Z,4.27
2017-12-13T19:03:50.322Z,3.53
2017-12-13T19:06:17.800Z,4.60
2017-12-13T19:08:45.249Z,3.73
2017-12-13T19:11:12.747Z,3.37
2017-12-13T19:13:40.243Z,3.10
2017-12-13T19:16:07.718Z,2.80
2017-12-13T19:18:35.479Z,3.40
2017-12-13T19:21:02.975Z,4.10
2017-12-13T19:23:30.474Z,3.17
2017-12-13T19:25:57.947Z,3.10
2017-12-13T19:28:25.406Z,3.37
2017-12-13T19:30:53.024Z,3.90
2017-12-13T19:33:20.501Z,3.43
2017-12-13T19:35:48.035Z,3.43
2017-12-13T19:38:15.543Z,3.60
2017-12-13T19:40:43.039Z,3.93
2017-12-13T19:43:10.500Z,3.10
2017-12-13T19:45:38.020Z,3.23
2017-12-13T19:48:05.587Z,3.27
2017-12-13T19:50:33.064Z,3.40
2017-12-13T19:53:00.534Z,3.10
2017-12-13T19:55:28.008Z,3.70
2017-12-13T19:57:55.583Z,3.50
2017-12-13T20:00:23.048Z,3.27
2017-12-13T20:02:50.524Z,4.60
2017-12-13T20:05:18.142Z,3.43
2017-12-13T20:07:45.631Z,3.60
2017-12-13T20:10:13.934Z,3.43
2017-12-13T20:12:41.389Z,5.47
2017-12-13T20:15:17.140Z,3.60
2017-12-13T20:17:44.670Z,3.53
2017-12-13T20:20:12.334Z,3.60
2017-12-13T20:22:39.801Z,3.30
2017-12-13T20:25:07.277Z,3.90
2017-12-13T20:27:34.847Z,3.93
2017-12-13T20:30:02.405Z,3.70
2017-12-13T20:32:29.935Z,3.20
2017-12-13T20:35:21.092Z,3.50
2017-12-13T20:37:48.662Z,3.30
2017-12-13T20:40:16.221Z,3.73
2017-12-13T20:42:43.710Z,2.87
2017-12-13T20:45:11.206Z,3.40
2017-12-13T20:47:38.723Z,3.23
2017-12-13T20:50:06.484Z,3.60
2017-12-13T20:52:34.015Z,3.57
2017-12-13T20:55:01.479Z,3.23
2017-12-13T20:57:29.037Z,3.57
2017-12-13T20:59:56.522Z,3.27
2017-12-13T21:02:24.088Z,3.03
2017-12-13T21:04:51.569Z,3.10
2017-12-13T21:07:19.044Z,3.20
2017-12-13T21:09:46.549Z,3.53
2017-12-13T21:12:14.005Z,3.23
2017-12-13T21:14:41.541Z,3.10
2017-12-13T21:17:09.063Z,2.87
2017-12-13T21:19:36.773Z,2.50
2017-12-13T21:22:04.246Z,3.00
2017-12-13T21:24:33.745Z,2.60
2017-12-13T21:27:01.238Z,2.70
2017-12-13T21:29:28.719Z,3.00
2017-12-13T21:31:56.195Z,2.57
2017-12-13T21:34:23.685Z,2.80
2017-12-13T21:36:51.175Z,3.13
2017-12-13T21:39:18.734Z,2.50
2017-12-13T21:41:46.372Z,2.53
2017-12-13T21:44:13.798Z,2.60
2017-12-13T21:46:41.283Z,2.40
2017-12-13T21:49:08.756Z,2.40
2017-12-13T21:51:37.063Z,2.40
2017-12-13T21:54:04.590Z,2.80
2017-12-13T21:56:32.123Z,2.87
2017-12-13T21:59:01.045Z,3.20
2017-12-13T22:01:29.084Z,2.87
2017-12-13T22:03:56.600Z,2.40
2017-12-13T22:06:24.104Z,3.30
2017-12-13T22:08:51.651Z,2.30
2017-12-13T22:11:19.128Z,2.20
2017-12-13T22:13:46.634Z,2.37
2017-12-13T22:16:14.106Z,2.23
2017-12-13T22:18:41.563Z,2.40
2017-12-13T22:21:09.065Z,2.27
2017-12-13T22:23:36.587Z,2.40
2017-12-13T22:26:04.086Z,2.40
2017-12-13T22:28:31.588Z,2.10
2017-12-13T22:30:59.049Z,2.80
2017-12-13T22:33:26.674Z,2.50
2017-12-13T22:35:54.200Z,2.53
2017-12-13T22:38:21.981Z,2.13
2017-12-13T22:40:49.673Z,2.30
2017-12-13T22:43:17.199Z,2.70
2017-12-13T22:45:44.744Z,2.67
2017-12-13T22:48:12.511Z,2.30
2017-12-13T22:50:39.987Z,2.17
2017-12-13T22:53:07.487Z,2.40
2017-12-13T22:55:35.300Z,2.33
2017-12-13T22:58:02.763Z,2.40
2017-12-13T23:00:42.029Z,2.67
2017-12-13T23:03:09.530Z,2.23
2017-12-13T23:05:37.442Z,2.60
2017-12-13T23:08:04.941Z,2.60
2017-12-13T23:10:32.409Z,2.30
2017-12-13T23:12:59.877Z,2.40
2017-12-13T23:15:27.347Z,2.67
2017-12-13T23:17:54.891Z,2.60
2017-12-13T23:20:22.352Z,2.47
2017-12-13T23:22:49.849Z,2.40
2017-12-13T23:25:17.268Z,2.77
2017-12-13T23:27:44.813Z,2.70
2017-12-13T23:30:12.249Z,2.83
2017-12-13T23:32:39.746Z,2.60
2017-12-13T23:35:07.196Z,2.80
2017-12-13T23:37:34.908Z,2.40
2017-12-13T23:40:02.414Z,2.90
2017-12-13T23:42:29.958Z,2.73
2017-12-13T23:44:57.439Z,2.57
2017-12-13T23:47:24.886Z,2.80
2017-12-13T23:49:52.384Z,2.80
2017-12-13T23:52:19.937Z,2.60
2017-12-13T23:54:47.413Z,2.50
2017-12-13T23:57:14.916Z,2.40
2017-12-13T23:59:42.422Z,3.07
